Time;durP1;ratioP1;P1;durP2;ratioP2;P2;SDS_P1;SDS_P2;PMS_P1;PMS_P2;Temp;Humidity;BMP_temperature;BMP_pressure;BME280_temperature;BME280_humidity;BME280_pressure;Samples;Min_cycle;Max_cycle;Signal;HPM_P1;HPM_P2
2020/12/20 00:01:15;;;;;;;;;;;;;;;;;;5118295;28;19923;-84
2020/12/20 00:03:41;;;;;;;;;;;;;;;;;;5116118;28;19947;-83
2020/12/20 00:06:08;;;;;;;;;;;;;;;;;;5116771;28;19924;-84
2020/12/20 00:08:34;;;;;;;;;;;;;;;;;;5112129;28;19923;-84
2020/12/20 00:11:01;;;;;;;;;;;;;;;;;;5115108;28;19947;-84
2020/12/20 00:13:27;;;;;;;;;;;;;;;;;;5115223;28;19931;-84
2020/12/20 00:15:53;;;;;;;;;;;;;;;;;;5113846;28;19997;-84
2020/12/20 00:18:20;;;;;;;;;;;;;;;;;;5117155;28;20299;-83
2020/12/20 00:20:46;;;;;;;;;;;;;;;;;;5118091;28;19923;-83
2020/12/20 00:23:13;;;;;;;;;;;;;;;;;;5116777;28;19924;-83
2020/12/20 00:25:39;;;;;;;;;;;;;;;;;;5115878;28;19931;-84
2020/12/20 00:28:06;;;;;;;;;;;;;;;;;;5114474;28;20287;-83
2020/12/20 00:30:32;;;;;;;;;;;;;;;;;;5117849;28;19951;-83
2020/12/20 00:32:59;;;;;;;;;;;;;;;;;;5120283;28;19928;-84
2020/12/20 00:35:25;;;;;;;;;;;;;;;;;;5122489;28;20315;-84
2020/12/20 00:37:51;;;;;;;;;;;;;;;;;;5122600;28;19928;-83
2020/12/20 00:40:18;;;;;;;;;;;;;;;;;;5125113;28;19924;-83
2020/12/20 00:42:44;;;;;;;;;;;;;;;;;;5129078;28;19924;-83
2020/12/20 00:45:10;;;;;;;;;;;;;;;;;;5121254;28;19924;-84
2020/12/20 00:47:37;;;;;;;;;;;;;;;;;;5121763;28;19934;-84
2020/12/20 00:50:03;;;;;;;;;;;;;;;;;;5121757;28;19931;-84
2020/12/20 00:52:29;;;;;;;;;;;;;;;;;;5122248;28;19924;-84
2020/12/20 00:54:56;;;;;;;;;;;;;;;;;;5123953;28;19924;-83
2020/12/20 00:57:23;;;;;;;;;;;;;;;;;;5127005;28;19935;-83
2020/12/20 00:59:49;;;;;;;;;;;;;;;;;;5124837;28;19924;-84
2020/12/20 01:02:15;;;;;;;;;;;;;;;;;;5125253;28;19924;-83
2020/12/20 01:04:42;;;;;;;;;;;;;;;;;;5126612;28;20384;-83
2020/12/20 01:07:08;;;;;;;;;;;;;;;;;;5125778;28;19979;-84
2020/12/20 01:09:34;;;;;;;;;;;;;;;;;;5126395;28;19931;-83
2020/12/20 01:12:03;;;;;;;;;;;;;;;;;;5129448;28;19930;-83
2020/12/20 01:14:29;;;;;;;;;;;;;;;;;;5131218;28;19930;-83
2020/12/20 01:16:56;;;;;;;;;;;;;;;;;;5125454;28;19931;-84
2020/12/20 01:19:22;;;;;;;;;;;;;;;;;;5127978;28;19924;-84
2020/12/20 01:21:49;;;;;;;;;;;;;;;;;;5125926;28;19924;-82
2020/12/20 01:24:15;;;;;;;;;;;;;;;;;;5122226;28;19928;-83
2020/12/20 01:26:41;;;;;;;;;;;;;;;;;;5121445;28;19924;-83
2020/12/20 01:29:08;;;;;;;;;;;;;;;;;;5121283;28;19924;-83
2020/12/20 01:31:34;;;;;;;;;;;;;;;;;;5120397;28;19923;-83
2020/12/20 01:34:02;;;;;;;;;;;;;;;;;;5139016;27;19923;-83
2020/12/20 01:36:32;;;;;;;;;;;;;;;;;;5142625;27;19971;-83
2020/12/20 01:38:58;;;;;;;;;;;;;;;;;;5142771;27;19927;-83
2020/12/20 01:41:25;;;;;;;;;;;;;;;;;;5130404;27;19924;-83
2020/12/20 01:43:53;;;;;;;;;;;;;;;;;;5139877;22;19915;-81
2020/12/20 01:46:19;;;;;;;;;;;;;;;;;;5128875;28;19927;-82
2020/12/20 01:48:45;;;;;;;;;;;;;;;;;;5136288;28;19930;-81
2020/12/20 01:51:12;;;;;;;;;;;;;;;;;;5124968;28;19935;-82
2020/12/20 01:53:38;;;;;;;;;;;;;;;;;;5120697;28;19924;-82
2020/12/20 01:56:04;;;;;;;;;;;;;;;;;;5110655;28;20300;-81
2020/12/20 01:58:36;;;;;;;;;;;;;;;;;;5123870;28;19924;-82
2020/12/20 02:01:02;;;;;;;;;;;;;;;;;;5116817;28;19970;-82
2020/12/20 02:03:29;;;;;;;;;;;;;;;;;;5112746;28;19935;-81
2020/12/20 02:05:55;;;;;;;;;;;;;;;;;;5113139;28;20363;-82
2020/12/20 02:08:21;;;;;;;;;;;;;;;;;;5109281;28;19948;-82
2020/12/20 02:10:48;;;;;;;;;;;;;;;;;;5110002;28;19924;-82
2020/12/20 02:13:15;;;;;;;;;;;;;;;;;;5110984;28;19924;-82
2020/12/20 02:15:41;;;;;;;;;;;;;;;;;;5111947;28;19931;-81
2020/12/20 02:18:08;;;;;;;;;;;;;;;;;;5113630;28;20307;-82
2020/12/20 02:20:35;;;;;;;;;;;;;;;;;;5131416;28;19929;-79
2020/12/20 02:23:01;;;;;;;;;;;;;;;;;;5140155;28;19931;-81
2020/12/20 02:25:28;;;;;;;;;;;;;;;;;;5118225;28;19928;-81
2020/12/20 02:27:55;;;;;;;;;;;;;;;;;;5108989;28;19924;-82
2020/12/20 02:30:21;;;;;;;;;;;;;;;;;;5114276;28;20257;-81
2020/12/20 02:32:48;;;;;;;;;;;;;;;;;;5120642;28;20001;-82
2020/12/20 02:35:14;;;;;;;;;;;;;;;;;;5116373;28;19924;-82
2020/12/20 02:37:40;;;;;;;;;;;;;;;;;;5114558;28;19931;-81
2020/12/20 02:40:07;;;;;;;;;;;;;;;;;;5101591;28;19924;-82
2020/12/20 02:42:33;;;;;;;;;;;;;;;;;;5106123;28;19970;-81
2020/12/20 02:45:00;;;;;;;;;;;;;;;;;;5100798;28;19928;-81
2020/12/20 02:47:26;;;;;;;;;;;;;;;;;;5106734;28;19924;-81
2020/12/20 02:49:52;;;;;;;;;;;;;;;;;;5105985;28;19924;-81
2020/12/20 02:52:19;;;;;;;;;;;;;;;;;;5104001;28;20431;-81
2020/12/20 02:54:45;;;;;;;;;;;;;;;;;;5105646;28;19996;-81
2020/12/20 02:57:11;;;;;;;;;;;;;;;;;;5088833;28;19924;-81
2020/12/20 02:59:38;;;;;;;;;;;;;;;;;;5105713;28;19927;-82
2020/12/20 03:02:04;;;;;;;;;;;;;;;;;;5104324;28;19932;-81
2020/12/20 03:04:30;;;;;;;;;;;;;;;;;;5105836;28;19924;-81
2020/12/20 03:06:57;;;;;;;;;;;;;;;;;;5105247;28;19924;-82
2020/12/20 03:09:23;;;;;;;;;;;;;;;;;;5118815;28;19924;-81
2020/12/20 03:11:50;;;;;;;;;;;;;;;;;;5106015;28;19928;-82
2020/12/20 03:14:16;;;;;;;;;;;;;;;;;;5120445;28;19924;-82
2020/12/20 03:16:42;;;;;;;;;;;;;;;;;;5107247;28;19928;-82
2020/12/20 03:19:09;;;;;;;;;;;;;;;;;;5121849;28;19932;-81
2020/12/20 03:21:35;;;;;;;;;;;;;;;;;;5116394;28;19924;-82
2020/12/20 03:24:02;;;;;;;;;;;;;;;;;;5138782;28;19914;-80
2020/12/20 03:26:28;;;;;;;;;;;;;;;;;;5140610;28;19919;-81
2020/12/20 03:28:55;;;;;;;;;;;;;;;;;;5136741;28;19924;-79
2020/12/20 03:31:24;;;;;;;;;;;;;;;;;;5111391;28;19924;-81
2020/12/20 03:33:50;;;;;;;;;;;;;;;;;;5106581;28;19931;-82
2020/12/20 03:36:16;;;;;;;;;;;;;;;;;;5105899;28;19924;-82
2020/12/20 03:38:43;;;;;;;;;;;;;;;;;;5111064;28;19928;-82
2020/12/20 03:41:09;;;;;;;;;;;;;;;;;;5123699;28;19928;-82
2020/12/20 03:43:36;;;;;;;;;;;;;;;;;;5127470;28;19908;-81
2020/12/20 03:46:02;;;;;;;;;;;;;;;;;;5125297;28;19930;-81
2020/12/20 03:48:28;;;;;;;;;;;;;;;;;;5122506;28;20058;-82
2020/12/20 03:50:55;;;;;;;;;;;;;;;;;;5111004;28;19924;-82
2020/12/20 03:53:21;;;;;;;;;;;;;;;;;;5119258;28;19931;-82
2020/12/20 03:55:48;;;;;;;;;;;;;;;;;;5106766;28;19932;-81
2020/12/20 03:58:14;;;;;;;;;;;;;;;;;;5113663;28;19924;-81
2020/12/20 04:00:40;;;;;;;;;;;;;;;;;;5110940;28;19932;-82
2020/12/20 04:03:07;;;;;;;;;;;;;;;;;;5104724;28;19925;-82
2020/12/20 04:05:33;;;;;;;;;;;;;;;;;;5104116;28;19931;-82
2020/12/20 04:07:59;;;;;;;;;;;;;;;;;;5106154;28;19950;-82
2020/12/20 04:10:27;;;;;;;;;;;;;;;;;;5109759;28;19931;-82
2020/12/20 04:12:53;;;;;;;;;;;;;;;;;;5106202;28;19935;-81
2020/12/20 04:15:19;;;;;;;;;;;;;;;;;;5102285;28;19928;-81
2020/12/20 04:17:46;;;;;;;;;;;;;;;;;;5099526;28;19946;-82
2020/12/20 04:20:12;;;;;;;;;;;;;;;;;;5097415;28;19932;-81
2020/12/20 04:22:38;;;;;;;;;;;;;;;;;;5105323;28;19943;-82
2020/12/20 04:25:05;;;;;;;;;;;;;;;;;;5109473;28;19924;-81
2020/12/20 04:27:31;;;;;;;;;;;;;;;;;;5113194;28;19946;-83
2020/12/20 04:29:58;;;;;;;;;;;;;;;;;;5109265;28;20338;-84
2020/12/20 04:32:25;;;;;;;;;;;;;;;;;;5109927;28;19963;-83
2020/12/20 04:34:51;;;;;;;;;;;;;;;;;;5105901;28;19963;-83
2020/12/20 04:37:17;;;;;;;;;;;;;;;;;;5116727;28;19956;-83
2020/12/20 04:39:44;;;;;;;;;;;;;;;;;;5117612;28;19924;-84
2020/12/20 04:42:10;;;;;;;;;;;;;;;;;;5110773;28;19939;-84
2020/12/20 04:44:37;;;;;;;;;;;;;;;;;;5100820;28;19924;-82
2020/12/20 04:47:03;;;;;;;;;;;;;;;;;;5113326;28;19924;-84
2020/12/20 04:49:30;;;;;;;;;;;;;;;;;;5102739;28;19927;-82
2020/12/20 04:51:56;;;;;;;;;;;;;;;;;;5109660;28;20391;-84
2020/12/20 04:54:23;;;;;;;;;;;;;;;;;;5120833;28;19946;-83
2020/12/20 04:56:49;;;;;;;;;;;;;;;;;;5102812;28;19935;-84
2020/12/20 04:59:15;;;;;;;;;;;;;;;;;;5107096;28;19931;-84
2020/12/20 05:01:42;;;;;;;;;;;;;;;;;;5117954;28;19909;-82
2020/12/20 05:04:08;;;;;;;;;;;;;;;;;;5139504;28;19934;-79
2020/12/20 05:06:35;;;;;;;;;;;;;;;;;;5137024;28;19992;-84
2020/12/20 05:09:01;;;;;;;;;;;;;;;;;;5129816;28;19907;-82
2020/12/20 05:11:27;;;;;;;;;;;;;;;;;;5119635;28;19930;-81
2020/12/20 05:13:54;;;;;;;;;;;;;;;;;;5111025;28;19931;-83
2020/12/20 05:16:20;;;;;;;;;;;;;;;;;;5117211;28;19924;-82
2020/12/20 05:18:46;;;;;;;;;;;;;;;;;;5111130;28;19928;-83
2020/12/20 05:21:13;;;;;;;;;;;;;;;;;;5103113;28;19924;-83
2020/12/20 05:23:39;;;;;;;;;;;;;;;;;;5124291;28;19928;-81
2020/12/20 05:26:06;;;;;;;;;;;;;;;;;;5120992;28;19931;-81
2020/12/20 05:28:32;;;;;;;;;;;;;;;;;;5136970;28;19946;-80
2020/12/20 05:30:58;;;;;;;;;;;;;;;;;;5118537;28;20376;-83
2020/12/20 05:33:25;;;;;;;;;;;;;;;;;;5116003;28;19928;-83
2020/12/20 05:35:52;;;;;;;;;;;;;;;;;;5105894;28;19924;-82
2020/12/20 05:38:18;;;;;;;;;;;;;;;;;;5107791;28;19929;-84
2020/12/20 05:40:44;;;;;;;;;;;;;;;;;;5106186;28;19931;-84
2020/12/20 05:43:14;;;;;;;;;;;;;;;;;;5112346;28;19924;-85
2020/12/20 05:45:40;;;;;;;;;;;;;;;;;;5107024;28;19919;-84
2020/12/20 05:48:07;;;;;;;;;;;;;;;;;;5113927;28;19924;-84
2020/12/20 05:50:33;;;;;;;;;;;;;;;;;;5108632;28;19924;-83
2020/12/20 05:52:59;;;;;;;;;;;;;;;;;;5106171;28;19931;-84
2020/12/20 05:55:26;;;;;;;;;;;;;;;;;;5107388;28;19945;-84
2020/12/20 05:57:52;;;;;;;;;;;;;;;;;;5114135;28;19931;-84
2020/12/20 06:00:19;;;;;;;;;;;;;;;;;;5102954;28;19925;-84
2020/12/20 06:02:45;;;;;;;;;;;;;;;;;;5109057;28;19924;-81
2020/12/20 06:05:12;;;;;;;;;;;;;;;;;;5106637;28;19925;-83
2020/12/20 06:07:39;;;;;;;;;;;;;;;;;;5105370;28;19924;-83
2020/12/20 06:10:05;;;;;;;;;;;;;;;;;;5114705;28;19925;-84
2020/12/20 06:12:32;;;;;;;;;;;;;;;;;;5110674;28;19932;-84
2020/12/20 06:14:58;;;;;;;;;;;;;;;;;;5123116;28;19970;-84
2020/12/20 06:17:24;;;;;;;;;;;;;;;;;;5122575;28;19924;-83
2020/12/20 06:19:51;;;;;;;;;;;;;;;;;;5105466;28;20296;-82
2020/12/20 06:22:17;;;;;;;;;;;;;;;;;;5116536;28;19931;-82
2020/12/20 06:24:43;;;;;;;;;;;;;;;;;;5109482;28;19924;-82
2020/12/20 06:27:10;;;;;;;;;;;;;;;;;;5123077;28;19928;-82
2020/12/20 06:29:36;;;;;;;;;;;;;;;;;;5119982;28;20360;-82
2020/12/20 06:32:03;;;;;;;;;;;;;;;;;;5122566;28;19925;-80
2020/12/20 06:34:29;;;;;;;;;;;;;;;;;;5120197;28;19920;-81
2020/12/20 06:36:55;;;;;;;;;;;;;;;;;;5121215;28;19924;-83
2020/12/20 06:39:22;;;;;;;;;;;;;;;;;;5116115;28;19911;-81
2020/12/20 06:41:48;;;;;;;;;;;;;;;;;;5120814;28;19924;-79
2020/12/20 06:44:14;;;;;;;;;;;;;;;;;;5120618;28;19912;-82
2020/12/20 06:46:41;;;;;;;;;;;;;;;;;;5108743;28;19928;-81
2020/12/20 06:49:07;;;;;;;;;;;;;;;;;;5104198;28;19924;-82
2020/12/20 06:51:33;;;;;;;;;;;;;;;;;;5102077;28;19928;-82
2020/12/20 06:54:00;;;;;;;;;;;;;;;;;;5097975;28;19924;-79
2020/12/20 06:56:26;;;;;;;;;;;;;;;;;;5112395;28;19930;-82
2020/12/20 06:58:53;;;;;;;;;;;;;;;;;;5107023;28;19924;-85
2020/12/20 07:01:19;;;;;;;;;;;;;;;;;;5110782;28;19924;-84
2020/12/20 07:03:46;;;;;;;;;;;;;;;;;;5113223;28;19957;-82
2020/12/20 07:06:12;;;;;;;;;;;;;;;;;;5099061;28;19930;-82
2020/12/20 07:08:38;;;;;;;;;;;;;;;;;;5108711;28;19944;-82
2020/12/20 07:11:06;;;;;;;;;;;;;;;;;;5099416;28;19924;-81
2020/12/20 07:13:32;;;;;;;;;;;;;;;;;;5109820;28;19924;-82
2020/12/20 07:15:58;;;;;;;;;;;;;;;;;;5103674;28;19948;-84
2020/12/20 07:18:25;;;;;;;;;;;;;;;;;;5119855;28;20032;-84
2020/12/20 07:20:51;;;;;;;;;;;;;;;;;;5104450;28;19987;-80
2020/12/20 07:23:18;;;;;;;;;;;;;;;;;;5107132;28;19928;-84
2020/12/20 07:25:44;;;;;;;;;;;;;;;;;;5101376;28;19928;-84
2020/12/20 07:28:10;;;;;;;;;;;;;;;;;;5106009;28;19949;-84
2020/12/20 07:30:37;;;;;;;;;;;;;;;;;;5103784;28;19924;-84
2020/12/20 07:33:03;;;;;;;;;;;;;;;;;;5113948;28;19939;-84
2020/12/20 07:35:41;;;;;;;;;;;;;;;;;;5103775;28;19931;-83
2020/12/20 07:38:08;;;;;;;;;;;;;;;;;;5108711;28;19931;-84
2020/12/20 07:40:34;;;;;;;;;;;;;;;;;;5108234;28;19923;-82
2020/12/20 07:43:00;;;;;;;;;;;;;;;;;;5107569;28;19924;-82
2020/12/20 07:45:27;;;;;;;;;;;;;;;;;;5132986;22;19924;-83
2020/12/20 07:47:53;;;;;;;;;;;;;;;;;;5116815;28;19935;-83
2020/12/20 07:53:16;;;;;;;;;;;;;;;;;;5050932;28;19928;-83
2020/12/20 08:12:05;;;;;;;;;;;;;;;;;;4958755;28;19978;-84
2020/12/20 08:14:31;;;;;;;;;;;;;;;;;;4960461;29;19927;-84
2020/12/20 08:16:58;;;;;;;;;;;;;;;;;;4959912;29;19926;-83
2020/12/20 08:19:24;;;;;;;;;;;;;;;;;;4961655;29;19942;-84
2020/12/20 08:21:51;;;;;;;;;;;;;;;;;;4963433;28;19926;-84
2020/12/20 08:57:29;;;;;;;;;;;;;;;;;;4930796;29;20352;-83
2020/12/20 08:59:56;;;;;;;;;;;;;;;;;;4928479;29;19970;-83
2020/12/20 09:10:37;;;;;;;;;;;;;;;;;;4931862;29;19965;-84
2020/12/20 09:15:49;;;;;;;;;;;;;;;;;;4960946;28;19953;-83
2020/12/20 09:21:05;;;;;;;;;;;;;;;;;;4990541;28;19937;-83
2020/12/20 09:23:31;;;;;;;;;;;;;;;;;;5012750;28;20107;-84
2020/12/20 09:25:58;;;;;;;;;;;;;;;;;;5033175;28;19931;-84
2020/12/20 09:28:24;;;;;;;;;;;;;;;;;;5093432;28;20443;-84
2020/12/20 09:30:51;;;;;;;;;;;;;;;;;;5101095;28;19933;-84
2020/12/20 09:33:17;;;;;;;;;;;;;;;;;;5112825;28;19908;-83
2020/12/20 09:35:44;;;;;;;;;;;;;;;;;;5098238;28;19925;-84
2020/12/20 09:38:13;;;;;;;;;;;;;;;;;;5095486;28;19923;-84
2020/12/20 09:40:39;;;;;;;;;;;;;;;;;;5107615;28;19935;-84
2020/12/20 09:43:05;;;;;;;;;;;;;;;;;;5098999;28;20391;-85
2020/12/20 09:45:32;;;;;;;;;;;;;;;;;;5100354;28;19950;-84
2020/12/20 09:47:58;;;;;;;;;;;;;;;;;;5093262;28;19925;-84
2020/12/20 09:50:25;;;;;;;;;;;;;;;;;;5100662;28;20406;-84
2020/12/20 09:52:51;;;;;;;;;;;;;;;;;;5109759;28;19924;-85
2020/12/20 09:55:17;;;;;;;;;;;;;;;;;;5091639;28;19931;-85
2020/12/20 09:57:44;;;;;;;;;;;;;;;;;;5099562;28;20387;-85
2020/12/20 10:00:12;;;;;;;;;;;;;;;;;;5102968;28;19924;-85
2020/12/20 10:02:38;;;;;;;;;;;;;;;;;;5099221;28;19924;-85
2020/12/20 10:05:05;;;;;;;;;;;;;;;;;;5101106;28;19974;-85
2020/12/20 10:07:33;;;;;;;;;;;;;;;;;;5093658;28;19928;-84
2020/12/20 10:09:59;;;;;;;;;;;;;;;;;;5099749;28;19924;-85
2020/12/20 10:12:26;;;;;;;;;;;;;;;;;;5106466;28;20422;-84
2020/12/20 10:14:52;;;;;;;;;;;;;;;;;;5110969;28;19929;-84
2020/12/20 10:17:19;;;;;;;;;;;;;;;;;;5100430;28;19924;-85
2020/12/20 10:19:45;;;;;;;;;;;;;;;;;;5106188;28;19924;-84
2020/12/20 10:22:12;;;;;;;;;;;;;;;;;;5108562;28;19928;-84
2020/12/20 10:24:38;;;;;;;;;;;;;;;;;;5103597;28;19977;-82
2020/12/20 10:27:04;;;;;;;;;;;;;;;;;;5094129;28;19924;-84
2020/12/20 10:29:31;;;;;;;;;;;;;;;;;;5088978;28;19925;-84
2020/12/20 10:31:57;;;;;;;;;;;;;;;;;;5081633;28;19929;-84
2020/12/20 10:34:26;;;;;;;;;;;;;;;;;;5096833;28;19924;-84
2020/12/20 10:36:52;;;;;;;;;;;;;;;;;;5100918;28;19928;-84
2020/12/20 10:39:19;;;;;;;;;;;;;;;;;;5103856;28;19981;-84
2020/12/20 10:41:46;;;;;;;;;;;;;;;;;;5085997;28;19932;-83
2020/12/20 10:44:14;;;;;;;;;;;;;;;;;;5106494;28;19928;-86
2020/12/20 10:46:40;;;;;;;;;;;;;;;;;;5097665;28;19929;-83
2020/12/20 10:49:07;;;;;;;;;;;;;;;;;;5104096;28;19924;-84
2020/12/20 10:51:33;;;;;;;;;;;;;;;;;;5103840;28;19947;-84
2020/12/20 10:54:00;;;;;;;;;;;;;;;;;;5115611;28;19977;-84
2020/12/20 10:56:26;;;;;;;;;;;;;;;;;;5102576;28;19924;-85
2020/12/20 10:58:53;;;;;;;;;;;;;;;;;;5105533;28;20007;-85
2020/12/20 11:01:20;;;;;;;;;;;;;;;;;;5107150;28;19928;-85
2020/12/20 11:03:46;;;;;;;;;;;;;;;;;;5100575;28;19931;-85
2020/12/20 11:06:14;;;;;;;;;;;;;;;;;;5100245;28;20015;-84
2020/12/20 11:08:40;;;;;;;;;;;;;;;;;;5108944;28;20024;-84
2020/12/20 11:11:06;;;;;;;;;;;;;;;;;;5106283;28;19924;-84
2020/12/20 11:13:33;;;;;;;;;;;;;;;;;;5097601;28;20014;-85
2020/12/20 11:16:00;;;;;;;;;;;;;;;;;;5105866;28;19924;-84
2020/12/20 11:18:27;;;;;;;;;;;;;;;;;;5100638;28;19924;-85
2020/12/20 11:20:53;;;;;;;;;;;;;;;;;;5100846;28;19924;-85
2020/12/20 11:23:20;;;;;;;;;;;;;;;;;;5100729;28;20019;-85
2020/12/20 11:25:48;;;;;;;;;;;;;;;;;;5100510;28;19947;-85
2020/12/20 11:28:14;;;;;;;;;;;;;;;;;;5094730;28;19924;-85
2020/12/20 11:30:41;;;;;;;;;;;;;;;;;;5096773;28;19928;-85
2020/12/20 11:33:07;;;;;;;;;;;;;;;;;;5100192;28;19931;-84
2020/12/20 11:35:33;;;;;;;;;;;;;;;;;;5116752;28;19927;-85
2020/12/20 11:38:00;;;;;;;;;;;;;;;;;;5085180;28;19931;-85
2020/12/20 11:40:26;;;;;;;;;;;;;;;;;;5098043;28;19931;-84
2020/12/20 11:42:53;;;;;;;;;;;;;;;;;;5113578;28;20287;-84
2020/12/20 11:45:21;;;;;;;;;;;;;;;;;;5116578;28;19907;-83
2020/12/20 11:47:48;;;;;;;;;;;;;;;;;;5107241;28;19924;-84
2020/12/20 11:50:14;;;;;;;;;;;;;;;;;;5103155;28;19928;-85
2020/12/20 11:52:42;;;;;;;;;;;;;;;;;;5106733;28;19924;-86
2020/12/20 11:55:08;;;;;;;;;;;;;;;;;;5111017;28;19924;-84
2020/12/20 11:57:34;;;;;;;;;;;;;;;;;;5112416;28;19928;-83
2020/12/20 12:00:01;;;;;;;;;;;;;;;;;;5110151;28;19924;-84
2020/12/20 12:02:27;;;;;;;;;;;;;;;;;;5103601;28;19924;-84
2020/12/20 12:04:54;;;;;;;;;;;;;;;;;;5100951;28;19924;-84
2020/12/20 12:07:21;;;;;;;;;;;;;;;;;;5092049;28;20820;-86
2020/12/20 12:09:47;;;;;;;;;;;;;;;;;;5112783;28;20002;-84
2020/12/20 12:12:13;;;;;;;;;;;;;;;;;;5108934;28;19946;-85
2020/12/20 12:14:40;;;;;;;;;;;;;;;;;;5101752;28;19924;-85
2020/12/20 12:17:06;;;;;;;;;;;;;;;;;;5115961;28;19931;-85
2020/12/20 12:19:32;;;;;;;;;;;;;;;;;;5096480;28;19924;-85
2020/12/20 12:21:59;;;;;;;;;;;;;;;;;;5105622;28;19931;-84
2020/12/20 12:24:25;;;;;;;;;;;;;;;;;;5103367;28;19924;-84
2020/12/20 12:26:52;;;;;;;;;;;;;;;;;;5108330;28;19928;-83
2020/12/20 12:29:19;;;;;;;;;;;;;;;;;;5097289;28;19963;-82
2020/12/20 12:31:46;;;;;;;;;;;;;;;;;;5118827;28;20018;-83
2020/12/20 12:34:12;;;;;;;;;;;;;;;;;;5109770;28;19931;-84
2020/12/20 12:36:41;;;;;;;;;;;;;;;;;;5096723;28;19924;-84
2020/12/20 12:41:52;;;;;;;;;;;;;;;;;;5110880;28;19934;-83
2020/12/20 12:47:10;;;;;;;;;;;;;;;;;;5116241;28;19903;-82
2020/12/20 12:49:36;;;;;;;;;;;;;;;;;;5116324;28;19945;-83
2020/12/20 12:54:44;;;;;;;;;;;;;;;;;;5114236;28;19950;-83
2020/12/20 12:57:10;;;;;;;;;;;;;;;;;;5098260;28;19928;-83
2020/12/20 12:59:37;;;;;;;;;;;;;;;;;;5097902;28;19928;-85
2020/12/20 13:02:03;;;;;;;;;;;;;;;;;;5095585;28;19994;-85
2020/12/20 13:04:29;;;;;;;;;;;;;;;;;;5095593;28;20269;-85
2020/12/20 13:06:56;;;;;;;;;;;;;;;;;;5098337;28;19950;-86
2020/12/20 13:09:22;;;;;;;;;;;;;;;;;;5096091;28;19928;-85
2020/12/20 13:11:51;;;;;;;;;;;;;;;;;;5097785;28;19924;-84
2020/12/20 13:14:17;;;;;;;;;;;;;;;;;;5089951;28;20335;-86
2020/12/20 13:16:44;;;;;;;;;;;;;;;;;;5097378;28;19950;-85
2020/12/20 13:19:10;;;;;;;;;;;;;;;;;;5104809;28;19936;-85
2020/12/20 13:21:36;;;;;;;;;;;;;;;;;;5099270;28;19924;-85
2020/12/20 13:24:03;;;;;;;;;;;;;;;;;;5097823;28;19924;-85
2020/12/20 13:26:30;;;;;;;;;;;;;;;;;;5093876;28;19932;-85
2020/12/20 13:29:08;;;;;;;;;;;;;;;;;;5079502;28;19972;-85
2020/12/20 13:31:34;;;;;;;;;;;;;;;;;;5084553;28;20374;-85
2020/12/20 13:34:01;;;;;;;;;;;;;;;;;;5100463;28;19924;-84
2020/12/20 13:36:27;;;;;;;;;;;;;;;;;;5095313;28;19928;-85
2020/12/20 13:38:54;;;;;;;;;;;;;;;;;;5099405;28;19931;-85
2020/12/20 13:41:20;;;;;;;;;;;;;;;;;;5098630;28;20328;-84
2020/12/20 13:43:47;;;;;;;;;;;;;;;;;;5092605;28;19932;-85
2020/12/20 13:46:15;;;;;;;;;;;;;;;;;;5099080;28;19928;-85
2020/12/20 13:48:42;;;;;;;;;;;;;;;;;;5099826;28;19928;-85
2020/12/20 13:51:14;;;;;;;;;;;;;;;;;;5099558;28;19932;-86
2020/12/20 13:53:40;;;;;;;;;;;;;;;;;;5113195;28;19908;-87
2020/12/20 13:56:07;;;;;;;;;;;;;;;;;;5115431;28;19924;-85
2020/12/20 13:58:33;;;;;;;;;;;;;;;;;;5102139;28;19924;-82
2020/12/20 14:00:59;;;;;;;;;;;;;;;;;;5099806;28;20364;-83
2020/12/20 14:03:26;;;;;;;;;;;;;;;;;;5100139;28;19946;-82
2020/12/20 14:11:26;;;;;;;;;;;;;;;;;;5061476;28;19927;-85
2020/12/20 14:16:34;;;;;;;;;;;;;;;;;;5063735;28;20012;-83
2020/12/20 14:19:00;;;;;;;;;;;;;;;;;;5062911;28;19932;-83
2020/12/20 14:21:26;;;;;;;;;;;;;;;;;;5050546;28;19935;-84
2020/12/20 14:23:53;;;;;;;;;;;;;;;;;;5066932;28;19931;-84
2020/12/20 14:26:19;;;;;;;;;;;;;;;;;;5059482;28;19925;-85
2020/12/20 14:28:51;;;;;;;;;;;;;;;;;;5063026;28;19986;-83
2020/12/20 14:31:17;;;;;;;;;;;;;;;;;;5061139;28;19925;-83
2020/12/20 14:33:46;;;;;;;;;;;;;;;;;;5060320;28;19925;-81
2020/12/20 14:36:13;;;;;;;;;;;;;;;;;;5053943;28;19924;-82
2020/12/20 14:38:42;;;;;;;;;;;;;;;;;;5062267;28;19925;-82
2020/12/20 14:41:09;;;;;;;;;;;;;;;;;;5062327;28;19924;-82
2020/12/20 14:43:35;;;;;;;;;;;;;;;;;;5069118;28;19925;-81
2020/12/20 14:46:02;;;;;;;;;;;;;;;;;;5067492;28;19913;-83
2020/12/20 14:48:31;;;;;;;;;;;;;;;;;;5077612;28;19924;-83
2020/12/20 14:50:58;;;;;;;;;;;;;;;;;;5076806;28;19925;-80
2020/12/20 14:53:24;;;;;;;;;;;;;;;;;;5078792;28;19921;-83
2020/12/20 14:55:50;;;;;;;;;;;;;;;;;;5072277;28;19924;-82
2020/12/20 14:58:17;;;;;;;;;;;;;;;;;;5072732;28;20353;-83
2020/12/20 15:00:46;;;;;;;;;;;;;;;;;;5055128;28;19925;-83
2020/12/20 15:03:15;;;;;;;;;;;;;;;;;;5072207;28;19924;-81
2020/12/20 15:05:42;;;;;;;;;;;;;;;;;;5064993;28;19928;-83
2020/12/20 15:08:08;;;;;;;;;;;;;;;;;;5053064;28;19932;-84
2020/12/20 15:10:39;;;;;;;;;;;;;;;;;;5057052;28;19936;-84
2020/12/20 15:13:05;;;;;;;;;;;;;;;;;;5059703;28;19931;-82
2020/12/20 15:15:32;;;;;;;;;;;;;;;;;;5054669;28;19925;-83
2020/12/20 15:23:25;;;;;;;;;;;;;;;;;;5067135;28;19925;-83
2020/12/20 15:25:52;;;;;;;;;;;;;;;;;;5072642;28;19925;-80
2020/12/20 15:28:18;;;;;;;;;;;;;;;;;;5059317;28;19931;-83
2020/12/20 15:30:45;;;;;;;;;;;;;;;;;;5058707;28;19929;-82
2020/12/20 15:33:11;;;;;;;;;;;;;;;;;;5059609;28;20365;-84
2020/12/20 15:35:38;;;;;;;;;;;;;;;;;;5065806;28;19932;-83
2020/12/20 15:38:04;;;;;;;;;;;;;;;;;;5068344;28;20299;-80
2020/12/20 15:40:31;;;;;;;;;;;;;;;;;;5070463;28;20305;-82
2020/12/20 15:42:57;;;;;;;;;;;;;;;;;;5075878;28;19982;-81
2020/12/20 15:45:23;;;;;;;;;;;;;;;;;;5076660;28;19951;-81
2020/12/20 15:47:51;;;;;;;;;;;;;;;;;;5070949;28;19941;-82
2020/12/20 15:50:17;;;;;;;;;;;;;;;;;;5064724;28;19925;-82
2020/12/20 15:52:44;;;;;;;;;;;;;;;;;;5055415;28;19951;-83
2020/12/20 15:55:10;;;;;;;;;;;;;;;;;;5064272;28;19951;-83
2020/12/20 15:57:36;;;;;;;;;;;;;;;;;;5064088;28;19924;-83
2020/12/20 16:00:05;;;;;;;;;;;;;;;;;;5055628;28;20408;-82
2020/12/20 16:02:32;;;;;;;;;;;;;;;;;;5060115;28;19925;-83
2020/12/20 16:04:58;;;;;;;;;;;;;;;;;;5054207;28;19929;-82
2020/12/20 16:07:25;;;;;;;;;;;;;;;;;;5061013;28;19932;-83
2020/12/20 16:09:54;;;;;;;;;;;;;;;;;;5063041;28;19925;-85
2020/12/20 16:12:20;;;;;;;;;;;;;;;;;;5060445;28;19925;-84
2020/12/20 16:14:47;;;;;;;;;;;;;;;;;;5059815;28;19932;-84
2020/12/20 16:17:14;;;;;;;;;;;;;;;;;;5073678;28;19932;-84
2020/12/20 16:19:40;;;;;;;;;;;;;;;;;;5076982;28;19912;-84
2020/12/20 16:22:07;;;;;;;;;;;;;;;;;;5079385;28;19928;-83
2020/12/20 16:24:33;;;;;;;;;;;;;;;;;;5081007;28;19927;-82
2020/12/20 16:27:00;;;;;;;;;;;;;;;;;;5076430;28;19909;-79
2020/12/20 16:29:26;;;;;;;;;;;;;;;;;;5072434;28;19913;-83
2020/12/20 16:31:56;;;;;;;;;;;;;;;;;;5054818;28;19925;-84
2020/12/20 16:34:22;;;;;;;;;;;;;;;;;;5062444;28;19925;-84
2020/12/20 16:36:48;;;;;;;;;;;;;;;;;;5062155;28;20366;-83
2020/12/20 16:39:16;;;;;;;;;;;;;;;;;;5054864;28;19933;-85
2020/12/20 16:41:42;;;;;;;;;;;;;;;;;;5051325;28;19980;-85
2020/12/20 16:44:09;;;;;;;;;;;;;;;;;;5051351;28;19932;-83
2020/12/20 16:46:35;;;;;;;;;;;;;;;;;;5053921;28;19933;-82
2020/12/20 16:49:02;;;;;;;;;;;;;;;;;;5054364;28;19924;-82
2020/12/20 16:51:28;;;;;;;;;;;;;;;;;;5053514;28;19931;-84
2020/12/20 16:53:55;;;;;;;;;;;;;;;;;;5058981;28;19929;-84
2020/12/20 16:56:32;;;;;;;;;;;;;;;;;;5068624;28;19929;-84
2020/12/20 16:58:59;;;;;;;;;;;;;;;;;;5061571;28;19929;-84
2020/12/20 17:01:25;;;;;;;;;;;;;;;;;;5057871;28;19983;-83
2020/12/20 17:03:52;;;;;;;;;;;;;;;;;;5056669;28;19932;-83
2020/12/20 17:06:18;;;;;;;;;;;;;;;;;;5055196;28;19925;-82
2020/12/20 17:08:44;;;;;;;;;;;;;;;;;;5059335;28;20393;-82
2020/12/20 17:11:11;;;;;;;;;;;;;;;;;;5041691;28;19979;-82
2020/12/20 17:13:37;;;;;;;;;;;;;;;;;;5063170;28;19924;-84
2020/12/20 17:16:04;;;;;;;;;;;;;;;;;;5060452;28;19928;-84
2020/12/20 17:18:30;;;;;;;;;;;;;;;;;;5067926;28;19925;-83
2020/12/20 17:20:56;;;;;;;;;;;;;;;;;;5060601;28;19956;-83
2020/12/20 17:23:23;;;;;;;;;;;;;;;;;;5057875;28;19929;-84
2020/12/20 17:25:49;;;;;;;;;;;;;;;;;;5059256;28;19925;-83
2020/12/20 17:28:16;;;;;;;;;;;;;;;;;;5056067;28;19979;-83
2020/12/20 17:30:43;;;;;;;;;;;;;;;;;;5056749;28;19924;-83
2020/12/20 17:33:10;;;;;;;;;;;;;;;;;;5064175;28;19924;-80
2020/12/20 17:35:36;;;;;;;;;;;;;;;;;;5058589;28;20008;-82
2020/12/20 17:38:03;;;;;;;;;;;;;;;;;;5066217;28;19925;-84
2020/12/20 17:40:29;;;;;;;;;;;;;;;;;;5071899;28;19947;-84
2020/12/20 17:42:56;;;;;;;;;;;;;;;;;;5067086;28;19980;-80
2020/12/20 17:45:22;;;;;;;;;;;;;;;;;;5075931;28;19933;-81
2020/12/20 17:47:48;;;;;;;;;;;;;;;;;;5080892;28;19928;-83
2020/12/20 17:50:15;;;;;;;;;;;;;;;;;;5067627;28;19975;-83
2020/12/20 17:52:43;;;;;;;;;;;;;;;;;;5073707;28;20435;-81
2020/12/20 17:55:10;;;;;;;;;;;;;;;;;;5066907;28;20042;-81
2020/12/20 17:57:36;;;;;;;;;;;;;;;;;;5074321;28;19932;-84
2020/12/20 18:00:02;;;;;;;;;;;;;;;;;;5070987;28;19925;-85
2020/12/20 18:02:32;;;;;;;;;;;;;;;;;;5067040;28;19944;-84
2020/12/20 18:04:58;;;;;;;;;;;;;;;;;;5095215;28;19924;-82
2020/12/20 18:07:24;;;;;;;;;;;;;;;;;;5092408;28;19924;-83
2020/12/20 18:09:51;;;;;;;;;;;;;;;;;;5071482;28;19932;-84